メインページ
METAR-TAF:

METAR-TAF

空港 :

フィウミチーノ空港

ローマ・フィウミチーノ, イタリア

緯度: 41-48N, 経度: 012-14E, 海抜: 2m

現時点の気象観測

当レポートは21分前の03:50(UTC)に作成
の風 4kt
気温 9°C
湿度 100%
気圧 1018 hPa
視程: 0050m

METAR: LIRF 250350Z 08004KT 0300 0050N R16L/0450N R16R/0325N R25/0375N R34R/0400N FG VV015 09/09 Q1018 BECMG 0200 FG

時間: 05:11 (04:11 UTC)

予報

当レポートは44分前の03:27(UTC)に作成
予報は25日の 03時(UTC)から 26日の 06時(UTC)まで有効
変向風 5kt
視程: 0200m
高度100ftの千切れ雲あり
25日の 07時(UTC)から 25日の 09時(UTC)まで徐々に
視程: 8000m
25日の 10時(UTC)から 25日の 12時(UTC)まで徐々に
西の風 10kt
25日の 15時(UTC)から 25日の 18時(UTC)まで徐々に
南/南東の風 10kt
26日の 01時(UTC)から 26日の 03時(UTC)まで徐々に
北/北東の風 12kt

TAF: LIRF 250327Z 2503/2606 VRB05KT 0200 FG BKN001 BECMG 2507/2509 8000 NSC BECMG 2510/2512 26010KT BECMG 2515/2518 16010KT BECMG 2601/2603 02012KT

4,000以上の空港の気象観測と天気予報(METAR報とTAF報)

利用可能な観測所は地図上に黄色い丸と赤い丸で示す。

丸の上にカーソルを重ねると観測所名を参照できる。

次にクリックすると気象観測と天気予報を参照できる。

マップの切り替え:黒色「×」印の緑ボタンをクリックして拡大、「-」印の緑ボタンをクリックして縮小、緑色の三角印をクリックして隣りの地図に切り替え


METAR-TAF: